createdAt,value
2023-02-16T00:01:21.143Z,56.92
2023-02-16T00:03:48.527Z,56.08
2023-02-16T00:06:16.274Z,55.90
2023-02-16T00:08:46.907Z,55.25
2023-02-16T00:13:59.334Z,51.72
2023-02-16T00:16:26.378Z,55.95
2023-02-16T00:18:53.417Z,58.33
2023-02-16T00:21:20.496Z,56.15
2023-02-16T00:23:48.416Z,56.03
2023-02-16T00:26:16.237Z,56.25
2023-02-16T00:28:43.396Z,59.47
2023-02-16T00:31:18.015Z,56.75
2023-02-16T00:33:45.225Z,59.60
2023-02-16T00:36:12.312Z,55.38
2023-02-16T00:38:39.431Z,58.92
2023-02-16T00:41:26.493Z,57.10
2023-02-16T00:43:54.819Z,56.33
2023-02-16T00:46:22.101Z,54.35
2023-02-16T00:48:49.138Z,54.72
2023-02-16T00:51:25.572Z,54.80
2023-02-16T00:53:53.219Z,53.75
2023-02-16T00:56:20.982Z,54.60
2023-02-16T00:58:48.377Z,54.13
2023-02-16T01:01:15.679Z,54.78
2023-02-16T01:03:42.716Z,54.00
2023-02-16T01:06:29.120Z,55.90
2023-02-16T01:09:15.129Z,53.33
2023-02-16T01:11:42.158Z,54.55
2023-02-16T01:14:09.931Z,54.25
2023-02-16T01:16:37.914Z,56.10
2023-02-16T01:19:05.119Z,54.42
2023-02-16T01:21:32.276Z,53.78
2023-02-16T01:23:59.480Z,51.72
2023-02-16T01:26:26.535Z,55.58
2023-02-16T01:28:53.574Z,57.70
2023-02-16T01:31:20.666Z,53.72
2023-02-16T01:33:47.785Z,57.17
2023-02-16T01:36:20.796Z,56.70
2023-02-16T01:38:47.865Z,55.65
2023-02-16T01:41:25.605Z,53.13
2023-02-16T01:43:57.659Z,55.17
2023-02-16T01:46:37.446Z,53.75
2023-02-16T01:49:04.449Z,51.28
2023-02-16T01:51:35.312Z,51.97
2023-02-16T01:54:08.410Z,52.30
2023-02-16T01:56:46.526Z,50.00
2023-02-16T01:59:18.126Z,52.28
2023-02-16T02:01:50.776Z,52.47
2023-02-16T02:04:40.654Z,51.90
2023-02-16T02:07:07.771Z,53.38
2023-02-16T02:09:36.330Z,52.63
2023-02-16T02:12:22.388Z,53.08
2023-02-16T02:14:49.487Z,49.65
2023-02-16T02:17:17.543Z,50.72
2023-02-16T02:19:46.607Z,51.33
2023-02-16T02:22:51.115Z,48.33
2023-02-16T02:25:23.440Z,47.17
2023-02-16T02:28:06.750Z,51.55
2023-02-16T02:30:46.937Z,47.03
2023-02-16T02:33:35.484Z,52.47
2023-02-16T02:36:21.470Z,46.50
2023-02-16T02:38:48.528Z,48.45
2023-02-16T02:41:55.041Z,44.08
2023-02-16T02:44:22.623Z,48.17
2023-02-16T02:46:49.679Z,46.17
2023-02-16T02:49:16.882Z,47.67
2023-02-16T02:51:43.848Z,48.28
2023-02-16T02:54:31.489Z,49.30
2023-02-16T02:57:20.196Z,52.13
2023-02-16T03:00:10.570Z,46.95
2023-02-16T03:02:37.973Z,49.63
2023-02-16T03:05:05.376Z,47.95
2023-02-16T03:07:47.343Z,50.83
2023-02-16T03:10:33.890Z,46.28
2023-02-16T03:13:01.358Z,48.05
2023-02-16T03:15:28.370Z,45.08
2023-02-16T03:18:13.963Z,46.13
2023-02-16T03:20:59.936Z,51.65
2023-02-16T03:23:45.336Z,47.65
2023-02-16T03:26:30.851Z,49.78
2023-02-16T03:29:17.456Z,48.33
2023-02-16T03:31:44.564Z,45.53
2023-02-16T03:34:11.670Z,47.25
2023-02-16T03:36:39.204Z,48.85
2023-02-16T03:39:06.229Z,44.55
2023-02-16T03:41:33.974Z,46.83
2023-02-16T03:44:01.099Z,50.40
2023-02-16T03:46:28.128Z,49.80
2023-02-16T03:48:55.148Z,47.25
2023-02-16T03:51:22.244Z,55.22
2023-02-16T03:53:50.177Z,51.33
2023-02-16T03:56:17.217Z,50.00
2023-02-16T03:58:44.242Z,46.65
2023-02-16T04:01:11.230Z,49.10
2023-02-16T04:03:38.356Z,45.65
2023-02-16T04:06:05.429Z,47.90
2023-02-16T04:08:32.487Z,46.42
2023-02-16T04:11:00.326Z,47.47
2023-02-16T04:13:27.348Z,50.00
2023-02-16T04:15:54.388Z,48.35
2023-02-16T04:18:21.455Z,46.72
2023-02-16T04:20:48.495Z,47.78
2023-02-16T04:23:15.535Z,46.30
2023-02-16T04:25:42.648Z,50.88
2023-02-16T04:28:09.625Z,46.20
2023-02-16T04:30:36.809Z,47.38
2023-02-16T04:33:03.869Z,45.35
2023-02-16T04:35:30.900Z,48.45
2023-02-16T04:37:57.870Z,45.95
2023-02-16T04:40:24.892Z,45.78
2023-02-16T04:42:52.075Z,51.30
2023-02-16T04:45:19.103Z,47.97
2023-02-16T04:47:46.104Z,49.13
2023-02-16T04:50:13.346Z,54.63
2023-02-16T04:52:41.396Z,47.55
2023-02-16T04:55:10.660Z,48.42
2023-02-16T04:57:38.682Z,49.80
2023-02-16T05:00:06.912Z,48.83
2023-02-16T05:02:33.951Z,53.08
2023-02-16T05:05:00.955Z,48.85
2023-02-16T05:07:28.054Z,44.05
2023-02-16T05:09:55.153Z,46.67
2023-02-16T05:12:40.932Z,45.83
2023-02-16T05:15:08.006Z,51.33
2023-02-16T05:17:34.988Z,47.25
2023-02-16T05:20:02.120Z,48.70
2023-02-16T05:22:29.276Z,47.45
2023-02-16T05:24:56.285Z,45.83
2023-02-16T05:27:24.207Z,44.78
2023-02-16T05:29:51.330Z,47.70
2023-02-16T05:32:18.567Z,50.22
2023-02-16T05:34:45.748Z,51.33
2023-02-16T05:37:16.224Z,45.67
2023-02-16T05:42:10.253Z,42.78
2023-02-16T05:44:37.506Z,47.05
2023-02-16T05:47:04.709Z,46.38
2023-02-16T05:49:31.775Z,47.03
2023-02-16T05:51:59.318Z,47.35
2023-02-16T05:54:27.768Z,45.97
2023-02-16T05:56:54.883Z,44.88
2023-02-16T05:59:21.935Z,50.38
2023-02-16T06:01:51.853Z,44.22
2023-02-16T06:06:46.395Z,44.58
2023-02-16T06:09:13.382Z,45.03
2023-02-16T06:11:40.386Z,43.13
2023-02-16T06:14:08.551Z,46.40
2023-02-16T06:16:35.849Z,43.50
2023-02-16T06:19:02.936Z,46.13
2023-02-16T06:21:30.014Z,45.95
2023-02-16T06:23:56.992Z,46.42
2023-02-16T06:26:24.027Z,43.72
2023-02-16T06:28:51.052Z,44.47
2023-02-16T06:31:18.258Z,44.25
2023-02-16T06:33:45.459Z,45.33
2023-02-16T06:36:12.679Z,46.33
2023-02-16T06:38:39.703Z,43.47
2023-02-16T06:41:07.019Z,47.95
2023-02-16T06:43:34.200Z,44.53
2023-02-16T06:46:01.189Z,47.17
2023-02-16T06:48:28.227Z,46.33
2023-02-16T06:50:55.283Z,47.85
2023-02-16T06:53:22.364Z,43.45
2023-02-16T06:55:50.690Z,44.08
2023-02-16T06:58:17.708Z,42.90
2023-02-16T07:00:44.724Z,41.75
2023-02-16T07:03:11.821Z,44.20
2023-02-16T07:05:38.901Z,43.78
2023-02-16T07:08:05.907Z,45.47
2023-02-16T07:10:48.675Z,43.90
2023-02-16T07:13:16.723Z,44.58
2023-02-16T07:15:43.826Z,45.95
2023-02-16T07:18:10.821Z,43.13
2023-02-16T07:20:37.940Z,44.22
2023-02-16T07:23:05.059Z,43.78
2023-02-16T07:25:32.052Z,43.22
2023-02-16T07:27:59.125Z,44.88
2023-02-16T07:30:26.268Z,45.70
2023-02-16T07:32:53.310Z,45.08
2023-02-16T07:35:21.304Z,46.45
2023-02-16T07:37:48.481Z,45.85
2023-02-16T07:40:15.449Z,46.65
2023-02-16T07:42:42.526Z,46.42
2023-02-16T07:45:09.821Z,45.83
2023-02-16T07:47:36.847Z,47.90
2023-02-16T07:50:03.998Z,48.88
2023-02-16T07:52:31.284Z,48.80
2023-02-16T07:55:01.705Z,47.20
2023-02-16T07:57:28.863Z,46.22
2023-02-16T07:59:55.928Z,48.53
2023-02-16T08:02:23.229Z,50.15
2023-02-16T08:04:52.563Z,48.80
2023-02-16T08:07:19.601Z,48.88
2023-02-16T08:09:46.578Z,50.72
2023-02-16T08:12:13.842Z,48.60
2023-02-16T08:14:41.295Z,46.97
2023-02-16T08:17:08.382Z,48.97
2023-02-16T08:19:37.062Z,47.90
2023-02-16T08:22:06.034Z,50.00
2023-02-16T08:24:36.275Z,49.20
2023-02-16T08:27:04.275Z,51.22
2023-02-16T08:29:31.351Z,47.65
2023-02-16T08:31:58.437Z,49.95
2023-02-16T08:34:25.548Z,48.97
2023-02-16T08:36:54.025Z,49.20
2023-02-16T08:39:21.364Z,47.08
2023-02-16T08:41:48.880Z,48.70
2023-02-16T08:44:16.220Z,50.63
2023-02-16T08:46:43.855Z,52.25
2023-02-16T08:49:11.240Z,49.97
2023-02-16T08:51:39.010Z,54.17
2023-02-16T08:54:08.504Z,57.03
2023-02-16T08:56:35.559Z,50.17
2023-02-16T08:59:02.695Z,50.20
2023-02-16T09:01:30.739Z,53.15
2023-02-16T09:03:58.907Z,51.22
2023-02-16T09:06:25.930Z,51.80
2023-02-16T09:08:53.412Z,53.47
2023-02-16T09:11:20.516Z,52.90
2023-02-16T09:13:47.793Z,50.67
2023-02-16T09:16:16.212Z,50.85
2023-02-16T09:18:44.782Z,52.88
2023-02-16T09:21:14.951Z,52.20
2023-02-16T09:23:44.679Z,53.10
2023-02-16T09:26:12.079Z,51.67
2023-02-16T09:28:39.250Z,53.00
2023-02-16T09:31:16.340Z,52.83
2023-02-16T09:33:43.954Z,52.47
2023-02-16T09:36:11.894Z,54.05
2023-02-16T09:38:41.712Z,54.00
2023-02-16T09:41:27.828Z,54.28
2023-02-16T09:44:03.138Z,52.88
2023-02-16T09:46:30.880Z,52.67
2023-02-16T09:48:58.716Z,51.75
2023-02-16T09:51:34.290Z,53.55
2023-02-16T09:54:22.795Z,53.75
2023-02-16T09:56:55.168Z,53.95
2023-02-16T09:59:40.940Z,55.95
2023-02-16T10:02:23.237Z,55.20
2023-02-16T10:04:57.657Z,55.40
2023-02-16T10:07:44.976Z,57.70
2023-02-16T10:10:14.783Z,54.47
2023-02-16T10:12:43.462Z,54.67
2023-02-16T10:15:15.000Z,55.80
2023-02-16T10:17:42.800Z,59.95
2023-02-16T10:20:20.424Z,57.05
2023-02-16T10:23:06.422Z,58.88
2023-02-16T10:25:44.611Z,55.28
2023-02-16T10:28:18.926Z,56.80
2023-02-16T10:31:07.551Z,55.78
2023-02-16T10:33:41.051Z,56.63
2023-02-16T10:36:16.192Z,56.42
2023-02-16T10:38:55.417Z,58.38
2023-02-16T10:41:38.978Z,57.35
2023-02-16T10:44:11.154Z,58.58
2023-02-16T10:46:39.605Z,58.65
2023-02-16T10:49:09.281Z,56.78
2023-02-16T10:51:37.816Z,58.63
2023-02-16T10:54:06.517Z,59.17
2023-02-16T10:56:39.384Z,58.13
2023-02-16T10:59:16.582Z,58.90
2023-02-16T11:01:44.651Z,58.28
2023-02-16T11:04:29.723Z,61.47
2023-02-16T11:07:07.188Z,58.22
2023-02-16T11:09:34.319Z,58.58
2023-02-16T11:12:01.361Z,59.95
2023-02-16T11:14:30.394Z,58.67
2023-02-16T11:17:08.456Z,56.50
2023-02-16T11:19:35.531Z,57.28
2023-02-16T11:22:02.614Z,58.72
2023-02-16T11:24:30.413Z,58.28
2023-02-16T11:27:05.400Z,57.90
2023-02-16T11:29:32.446Z,59.85
2023-02-16T11:31:59.603Z,57.50
2023-02-16T11:34:30.781Z,59.17
2023-02-16T11:37:04.068Z,57.95
2023-02-16T11:39:33.830Z,58.67
2023-02-16T11:42:02.180Z,57.50
2023-02-16T11:44:33.832Z,58.08
2023-02-16T11:47:21.344Z,56.50
2023-02-16T11:49:48.403Z,56.28
2023-02-16T11:52:27.029Z,56.53
2023-02-16T11:54:55.811Z,53.97
2023-02-16T11:57:31.001Z,55.85
2023-02-16T11:59:58.346Z,56.72
2023-02-16T12:02:35.495Z,52.97
2023-02-16T12:05:21.635Z,54.95
2023-02-16T12:08:04.092Z,50.72
2023-02-16T12:10:42.890Z,52.72
2023-02-16T12:13:17.243Z,50.92
2023-02-16T12:15:49.021Z,48.30
2023-02-16T12:18:19.113Z,46.03
2023-02-16T12:20:48.997Z,46.45
2023-02-16T12:23:19.018Z,44.58
2023-02-16T12:25:55.057Z,47.45
2023-02-16T12:28:22.194Z,44.28
2023-02-16T12:30:52.788Z,43.22
2023-02-16T12:33:35.743Z,42.70
2023-02-16T12:36:20.052Z,43.30
2023-02-16T12:38:47.177Z,42.10
2023-02-16T12:41:14.187Z,43.60
2023-02-16T12:43:42.859Z,43.60
2023-02-16T12:46:14.809Z,42.22
2023-02-16T12:48:43.218Z,43.03
2023-02-16T12:51:11.602Z,43.05
2023-02-16T12:53:51.888Z,42.78
2023-02-16T12:56:21.122Z,41.10
2023-02-16T12:58:51.117Z,42.38
2023-02-16T13:01:19.315Z,41.97
2023-02-16T13:03:54.084Z,39.20
2023-02-16T13:06:26.378Z,39.75
2023-02-16T13:09:12.318Z,40.05
2023-02-16T13:11:53.891Z,39.78
2023-02-16T13:14:21.663Z,40.60
2023-02-16T13:16:52.924Z,40.83
2023-02-16T13:19:20.231Z,39.58
2023-02-16T13:21:53.152Z,38.20
2023-02-16T13:24:32.415Z,38.28
2023-02-16T13:27:18.163Z,37.10
2023-02-16T13:30:05.569Z,37.83
2023-02-16T13:32:55.538Z,36.65
2023-02-16T13:35:30.053Z,37.13
2023-02-16T13:38:15.922Z,37.13
2023-02-16T13:40:52.167Z,36.58
2023-02-16T13:43:37.504Z,37.17
2023-02-16T13:46:06.457Z,38.28
2023-02-16T13:48:38.247Z,35.90
2023-02-16T13:51:06.343Z,36.90
2023-02-16T13:53:37.861Z,35.90
2023-02-16T13:56:23.713Z,36.47
2023-02-16T13:58:51.495Z,36.83
2023-02-16T14:01:42.853Z,35.72
2023-02-16T14:04:12.733Z,37.28
2023-02-16T14:06:40.482Z,37.83
2023-02-16T14:09:16.903Z,36.67
2023-02-16T14:11:53.231Z,37.47
2023-02-16T14:14:31.283Z,36.30
2023-02-16T14:17:17.423Z,35.92
2023-02-16T14:19:52.338Z,36.60
2023-02-16T14:22:20.428Z,34.50
2023-02-16T14:24:54.511Z,36.17
2023-02-16T14:27:44.501Z,36.97
2023-02-16T14:30:16.063Z,34.72
2023-02-16T14:32:43.566Z,35.00
2023-02-16T14:35:18.829Z,35.10
2023-02-16T14:37:52.997Z,34.83
2023-02-16T14:40:35.327Z,33.53
2023-02-16T14:43:04.802Z,34.10
2023-02-16T14:45:37.919Z,33.40
2023-02-16T14:48:04.932Z,32.72
2023-02-16T14:50:34.740Z,33.95
2023-02-16T14:53:20.888Z,33.33
2023-02-16T14:55:50.708Z,33.33
2023-02-16T14:58:23.380Z,33.78
2023-02-16T15:00:54.236Z,31.83
2023-02-16T15:03:27.922Z,33.78
2023-02-16T15:05:57.103Z,31.63
2023-02-16T15:08:25.264Z,32.40
2023-02-16T15:10:55.753Z,31.60
2023-02-16T15:13:32.052Z,31.63
2023-02-16T15:16:00.276Z,31.92
2023-02-16T15:18:32.701Z,32.20
2023-02-16T15:20:59.813Z,33.83
2023-02-16T15:23:27.563Z,32.55
2023-02-16T15:25:54.622Z,32.15
2023-02-16T15:28:22.510Z,33.63
2023-02-16T15:30:53.533Z,33.15
2023-02-16T15:33:23.627Z,33.05
2023-02-16T15:35:59.104Z,33.47
2023-02-16T15:38:31.716Z,34.00
2023-02-16T15:41:01.713Z,32.50
2023-02-16T15:43:43.875Z,33.05
2023-02-16T15:46:24.014Z,32.97
2023-02-16T15:48:51.218Z,34.08
2023-02-16T15:51:20.998Z,35.28
2023-02-16T15:53:49.466Z,33.70
2023-02-16T15:56:37.279Z,34.28
2023-02-16T15:59:17.983Z,33.70
2023-02-16T16:01:45.120Z,32.80
2023-02-16T16:04:17.320Z,34.15
2023-02-16T16:06:46.016Z,32.78
2023-02-16T16:09:14.955Z,32.63
2023-02-16T16:11:41.969Z,32.83
2023-02-16T16:14:10.382Z,33.25
2023-02-16T16:16:37.603Z,33.58
2023-02-16T16:19:15.685Z,32.67
2023-02-16T16:21:54.237Z,34.22
2023-02-16T16:24:28.476Z,32.60
2023-02-16T16:26:56.318Z,33.10
2023-02-16T16:29:29.907Z,33.38
2023-02-16T16:31:57.340Z,33.97
2023-02-16T16:34:31.699Z,32.47
2023-02-16T16:36:58.816Z,34.70
2023-02-16T16:39:29.470Z,33.10
2023-02-16T16:42:15.798Z,34.47
2023-02-16T16:44:43.751Z,34.45
2023-02-16T16:47:22.569Z,34.65
2023-02-16T16:49:51.179Z,33.80
2023-02-16T16:52:33.531Z,34.53
2023-02-16T16:55:00.593Z,34.47
2023-02-16T16:57:28.490Z,35.22
2023-02-16T16:59:56.564Z,37.08
2023-02-16T17:02:23.608Z,34.75
2023-02-16T17:04:50.648Z,34.92
2023-02-16T17:07:17.660Z,34.05
2023-02-16T17:09:44.664Z,33.42
2023-02-16T17:12:11.781Z,32.70
2023-02-16T17:14:38.794Z,35.67
2023-02-16T17:17:08.513Z,33.70
2023-02-16T17:19:35.655Z,34.17
2023-02-16T17:22:02.660Z,32.58
2023-02-16T17:24:29.737Z,32.70
2023-02-16T17:26:56.841Z,32.70
2023-02-16T17:29:23.942Z,34.10
2023-02-16T17:31:51.008Z,33.90
2023-02-16T17:34:18.084Z,34.08
2023-02-16T17:36:45.377Z,35.13
2023-02-16T17:39:12.400Z,34.78
2023-02-16T17:41:39.390Z,37.13
2023-02-16T17:44:06.422Z,36.50
2023-02-16T17:46:33.423Z,37.45
2023-02-16T17:49:00.436Z,35.50
2023-02-16T17:51:29.471Z,35.67
2023-02-16T17:53:56.470Z,34.88
2023-02-16T17:56:24.534Z,35.85
2023-02-16T17:58:51.631Z,35.67
2023-02-16T18:01:18.878Z,37.72
2023-02-16T18:03:45.913Z,33.80
2023-02-16T18:06:14.517Z,35.00
2023-02-16T18:08:41.593Z,34.90
2023-02-16T18:11:08.589Z,36.45
2023-02-16T18:13:35.663Z,35.60
2023-02-16T18:16:07.136Z,35.95
2023-02-16T18:18:36.616Z,36.03
2023-02-16T18:21:03.747Z,35.70
2023-02-16T18:23:32.258Z,35.50
2023-02-16T18:25:59.294Z,37.40
2023-02-16T18:28:27.100Z,36.72
2023-02-16T18:30:54.240Z,37.92
2023-02-16T18:33:21.986Z,38.03
2023-02-16T18:35:49.459Z,40.20
2023-02-16T18:38:16.455Z,38.88
2023-02-16T18:40:43.744Z,39.45
2023-02-16T18:43:11.470Z,39.08
2023-02-16T18:45:39.145Z,41.47
2023-02-16T18:48:06.137Z,40.85
2023-02-16T18:50:33.161Z,40.78
2023-02-16T18:53:00.210Z,40.25
2023-02-16T18:55:32.921Z,41.30
2023-02-16T18:58:00.554Z,40.05
2023-02-16T19:00:27.704Z,41.45
2023-02-16T19:02:55.370Z,41.17
2023-02-16T19:05:22.473Z,41.20
2023-02-16T19:07:49.598Z,41.92
2023-02-16T19:10:16.674Z,42.30
2023-02-16T19:12:43.728Z,41.78
2023-02-16T19:15:10.738Z,40.33
2023-02-16T19:17:38.598Z,41.58
2023-02-16T19:20:07.957Z,41.08
2023-02-16T19:22:37.176Z,43.25
2023-02-16T19:25:05.732Z,41.72
2023-02-16T19:27:32.796Z,44.95
2023-02-16T19:29:59.881Z,44.40
2023-02-16T19:32:26.968Z,43.30
2023-02-16T19:34:54.019Z,45.05
2023-02-16T19:37:21.102Z,44.22
2023-02-16T19:39:48.118Z,43.10
2023-02-16T19:42:15.155Z,44.33
2023-02-16T19:44:42.166Z,42.70
2023-02-16T19:47:09.268Z,42.30
2023-02-16T19:49:36.678Z,41.42
2023-02-16T19:52:04.299Z,41.63
2023-02-16T19:54:33.016Z,41.65
2023-02-16T19:57:00.069Z,40.33
2023-02-16T19:59:27.172Z,39.83
2023-02-16T20:01:54.328Z,39.95
2023-02-16T20:04:21.418Z,42.13
2023-02-16T20:06:49.074Z,40.00
2023-02-16T20:09:17.816Z,42.13
2023-02-16T20:11:44.848Z,41.60
2023-02-16T20:14:12.071Z,40.47
2023-02-16T20:16:39.269Z,40.45
2023-02-16T20:19:06.340Z,40.58
2023-02-16T20:21:33.466Z,40.20
2023-02-16T20:24:01.470Z,39.60
2023-02-16T20:26:29.497Z,39.85
2023-02-16T20:28:56.549Z,39.53
2023-02-16T20:31:28.740Z,40.28
2023-02-16T20:33:55.925Z,39.15
2023-02-16T20:36:22.981Z,40.33
2023-02-16T20:38:50.341Z,39.58
2023-02-16T20:41:20.486Z,39.80
2023-02-16T20:43:47.566Z,38.50
2023-02-16T20:46:14.844Z,39.55
2023-02-16T20:48:41.882Z,37.97
2023-02-16T20:51:08.961Z,40.35
2023-02-16T20:53:36.062Z,38.47
2023-02-16T20:56:04.498Z,39.30
2023-02-16T20:58:31.990Z,38.42
2023-02-16T21:00:59.060Z,41.38
2023-02-16T21:03:26.112Z,41.45
2023-02-16T21:05:53.464Z,39.80
2023-02-16T21:08:20.859Z,39.72
2023-02-16T21:10:47.862Z,38.97
2023-02-16T21:13:14.933Z,40.08
2023-02-16T21:15:41.914Z,38.15
2023-02-16T21:18:10.440Z,38.95
2023-02-16T21:20:37.446Z,38.38
2023-02-16T21:23:04.521Z,38.70
2023-02-16T21:25:31.645Z,39.53
2023-02-16T21:27:58.685Z,44.50
2023-02-16T21:30:25.771Z,41.08
2023-02-16T21:32:52.796Z,41.25
2023-02-16T21:35:19.812Z,40.58
2023-02-16T21:37:46.854Z,41.50
2023-02-16T21:40:32.550Z,39.50
2023-02-16T21:42:59.547Z,39.85
2023-02-16T21:45:26.560Z,37.47
2023-02-16T21:48:11.994Z,37.45
2023-02-16T21:50:39.678Z,36.42
2023-02-16T21:53:06.939Z,37.70
2023-02-16T21:55:52.500Z,37.55
2023-02-16T21:58:19.536Z,36.78
2023-02-16T22:00:49.554Z,37.20
2023-02-16T22:03:16.578Z,38.28
2023-02-16T22:05:43.599Z,38.72
2023-02-16T22:08:12.586Z,37.95
2023-02-16T22:10:41.041Z,38.05
2023-02-16T22:13:08.475Z,37.65
2023-02-16T22:15:36.946Z,36.65
2023-02-16T22:18:07.012Z,37.40
2023-02-16T22:20:34.134Z,36.47
2023-02-16T22:23:01.140Z,37.42
2023-02-16T22:25:28.106Z,36.80
2023-02-16T22:27:55.132Z,37.22
2023-02-16T22:30:22.267Z,36.53
2023-02-16T22:32:51.121Z,36.92
2023-02-16T22:35:18.338Z,37.83
2023-02-16T22:37:45.331Z,35.03
2023-02-16T22:40:12.349Z,32.42
2023-02-16T22:42:39.369Z,32.28
2023-02-16T22:45:06.574Z,32.70
2023-02-16T22:47:33.576Z,33.35
2023-02-16T22:50:00.613Z,32.00
2023-02-16T22:52:28.164Z,31.83
2023-02-16T22:54:55.145Z,31.02
2023-02-16T22:57:22.207Z,30.20
2023-02-16T22:59:49.270Z,31.38
2023-02-16T23:02:16.251Z,33.40
2023-02-16T23:04:43.479Z,30.05
2023-02-16T23:07:10.538Z,30.98
2023-02-16T23:09:37.593Z,34.80
2023-02-16T23:12:04.661Z,36.35
2023-02-16T23:14:31.700Z,36.28
2023-02-16T23:16:58.823Z,38.58
2023-02-16T23:19:26.337Z,38.08
2023-02-16T23:21:53.590Z,38.08
2023-02-16T23:24:21.370Z,37.67
2023-02-16T23:26:48.380Z,37.38
2023-02-16T23:29:15.505Z,36.38
2023-02-16T23:31:42.812Z,36.97
2023-02-16T23:34:09.913Z,37.22
2023-02-16T23:36:37.144Z,36.63
2023-02-16T23:39:08.918Z,37.70
2023-02-16T23:41:35.983Z,37.22
2023-02-16T23:44:03.274Z,36.40
2023-02-16T23:46:30.420Z,36.85
2023-02-16T23:48:57.573Z,36.28
2023-02-16T23:51:24.595Z,37.90
2023-02-16T23:53:51.616Z,37.33
2023-02-16T23:56:22.462Z,35.90
2023-02-16T23:58:49.629Z,36.72
